Time;durP1;ratioP1;P1;durP2;ratioP2;P2;SDS_P1;SDS_P2;PMS_P1;PMS_P2;Temp;Humidity;BMP_temperature;BMP_pressure;BME280_temperature;BME280_humidity;BME280_pressure;Samples;Min_cycle;Max_cycle;Signal;HPM_P1;HPM_P2
2022/03/27 00:01:35;;;;;;;20.50;14.73;;;11.10;1.00;11.30;101850.00;;;;4998586;28;20453;-80
2022/03/27 00:04:04;;;;;;;20.60;15.83;;;11.00;1.00;11.20;101854.00;;;;4998922;28;20531;-80
2022/03/27 00:06:32;;;;;;;18.87;14.53;;;11.00;1.00;11.20;101858.00;;;;4996815;28;20466;-77
2022/03/27 00:09:01;;;;;;;22.07;15.07;;;10.90;1.00;11.30;101855.00;;;;4996559;28;20526;-79
2022/03/27 00:11:29;;;;;;;18.90;13.60;;;10.90;1.00;11.20;101852.00;;;;4993995;28;20465;-80
2022/03/27 00:14:03;;;;;;;21.50;15.47;;;10.90;1.00;11.30;101857.00;;;;4994194;28;20473;-79
2022/03/27 00:16:35;;;;;;;20.10;15.33;;;10.90;1.00;11.30;101853.00;;;;4991770;28;20484;-79
2022/03/27 00:19:04;;;;;;;18.93;15.83;;;10.90;1.00;11.20;101857.00;;;;4994742;28;20484;-82
2022/03/27 00:21:32;;;;;;;18.23;14.50;;;10.90;1.00;11.20;101853.00;;;;4993847;28;20465;-79
2022/03/27 00:24:01;;;;;;;19.53;15.93;;;10.90;1.00;11.20;101859.00;;;;4993096;28;20478;-79
2022/03/27 00:26:29;;;;;;;18.70;16.70;;;10.90;1.00;11.20;101851.00;;;;4993420;28;20454;-78
2022/03/27 00:28:58;;;;;;;19.03;15.53;;;10.80;1.00;11.10;101848.00;;;;5008454;28;20454;-79
2022/03/27 00:31:27;;;;;;;17.10;15.30;;;10.80;1.00;11.20;101845.00;;;;5010520;28;20525;-79
2022/03/27 00:33:57;;;;;;;17.80;15.33;;;10.80;1.00;11.10;101849.00;;;;5000635;28;20524;-81
2022/03/27 00:36:26;;;;;;;23.80;16.80;;;10.80;1.00;11.10;101853.00;;;;4999733;28;20461;-79
2022/03/27 00:38:54;;;;;;;18.03;15.60;;;10.80;1.00;11.20;101844.00;;;;4999448;28;20900;-79
2022/03/27 00:41:25;;;;;;;18.93;16.07;;;10.80;1.00;11.20;101833.00;;;;5007631;28;20454;-78
2022/03/27 00:43:53;;;;;;;19.23;15.20;;;10.80;1.00;11.10;101836.00;;;;4999173;28;21616;-78
2022/03/27 00:46:24;;;;;;;19.57;16.27;;;10.80;1.00;11.20;101840.00;;;;4999503;28;20469;-79
2022/03/27 00:48:54;;;;;;;18.03;15.97;;;10.80;1.00;11.20;101852.00;;;;5003014;28;20453;-79
2022/03/27 00:51:23;;;;;;;20.83;16.47;;;10.80;1.00;11.10;101839.00;;;;4999095;28;20478;-80
2022/03/27 00:53:52;;;;;;;19.63;15.50;;;10.80;1.00;11.10;101851.00;;;;5007302;28;20446;-80
2022/03/27 00:56:20;;;;;;;19.03;14.53;;;10.80;1.00;11.10;101837.00;;;;5004062;28;20476;-80
2022/03/27 00:58:48;;;;;;;19.67;15.00;;;10.70;1.00;11.10;101843.00;;;;5008336;28;20947;-78
2022/03/27 01:01:21;;;;;;;19.27;15.90;;;10.80;1.00;11.10;101839.00;;;;5007169;28;22331;-79
2022/03/27 01:03:52;;;;;;;24.93;17.20;;;10.70;1.00;11.10;101842.00;;;;5001360;28;20458;-80
2022/03/27 01:06:32;;;;;;;20.03;15.40;;;10.70;1.00;11.00;101830.00;;;;5005016;28;20959;-80
2022/03/27 01:11:50;;;;;;;21.80;16.40;;;10.70;1.00;10.90;101834.00;;;;4998264;28;20477;-80
2022/03/27 01:14:26;;;;;;;18.37;15.77;;;10.60;1.00;10.90;101837.00;;;;4996827;28;20501;-81
2022/03/27 01:17:01;;;;;;;17.50;15.70;;;10.60;1.00;10.90;101832.00;;;;4996698;28;20457;-80
2022/03/27 01:19:29;;;;;;;23.53;16.43;;;10.50;1.00;10.90;101837.00;;;;4996621;28;20515;-80
2022/03/27 01:22:00;;;;;;;21.73;16.00;;;10.50;1.00;10.80;101829.00;;;;4992783;28;20703;-80
2022/03/27 01:24:29;;;;;;;23.53;17.00;;;10.40;1.00;10.80;101824.00;;;;4998906;28;20486;-80
2022/03/27 01:26:57;;;;;;;22.00;16.00;;;10.40;1.00;10.80;101827.00;;;;4999024;28;20453;-79
2022/03/27 01:29:26;;;;;;;22.00;16.40;;;10.40;1.00;10.80;101814.00;;;;4997007;28;20472;-78
2022/03/27 01:31:54;;;;;;;20.80;15.60;;;10.40;1.00;10.80;101809.00;;;;5000051;28;20532;-79
2022/03/27 01:34:22;;;;;;;20.20;16.60;;;10.40;1.00;10.80;101823.00;;;;4997571;28;20581;-79
2022/03/27 01:36:51;;;;;;;21.70;16.43;;;10.70;1.00;10.80;101816.00;;;;4998666;28;20473;-79
2022/03/27 01:39:21;;;;;;;18.70;15.50;;;10.50;1.00;10.80;101822.00;;;;4995171;28;20463;-79
2022/03/27 01:41:49;;;;;;;19.37;14.83;;;10.40;1.00;10.80;101808.00;;;;4997843;28;20963;-79
2022/03/27 01:44:20;;;;;;;19.53;15.73;;;10.40;1.00;10.70;101810.00;;;;4993274;28;20478;-79
2022/03/27 01:46:49;;;;;;;18.10;14.57;;;10.40;1.00;10.60;101803.00;;;;4996824;28;20469;-80
2022/03/27 01:49:19;;;;;;;19.03;16.07;;;10.30;1.00;10.60;101813.00;;;;4994476;28;20473;-80
2022/03/27 01:51:47;;;;;;;19.90;16.97;;;10.20;1.00;10.50;101806.00;;;;4996168;28;20502;-80
2022/03/27 01:54:19;;;;;;;20.17;15.27;;;10.20;1.00;10.50;101803.00;;;;4993992;28;20492;-80
2022/03/27 01:56:48;;;;;;;20.97;16.87;;;10.20;1.00;10.50;101805.00;;;;4993322;28;20502;-79
2022/03/27 01:59:20;;;;;;;23.33;17.40;;;10.10;1.00;10.40;101783.00;;;;4995931;28;20688;-79
2022/03/27 02:01:49;;;;;;;19.90;16.43;;;10.10;1.00;10.40;101803.00;;;;4994095;28;20461;-79
2022/03/27 02:04:18;;;;;;;22.47;17.97;;;10.10;1.00;10.40;101812.00;;;;4996833;28;20500;-80
2022/03/27 02:06:46;;;;;;;22.30;17.10;;;10.00;1.00;10.40;101795.00;;;;4996282;28;20463;-80
2022/03/27 02:09:15;;;;;;;21.17;16.93;;;10.10;1.00;10.40;101795.00;;;;4995057;28;21029;-79
2022/03/27 02:11:44;;;;;;;18.23;15.60;;;10.10;1.00;10.50;101802.00;;;;5000841;28;20610;-78
2022/03/27 02:14:14;;;;;;;21.20;16.97;;;10.10;1.00;10.40;101804.00;;;;4999564;28;20496;-78
2022/03/27 02:16:42;;;;;;;23.00;16.83;;;10.10;1.00;10.40;101799.00;;;;5005702;28;20481;-79
2022/03/27 02:19:12;;;;;;;22.00;16.80;;;10.10;1.00;10.40;101804.00;;;;5029599;28;20431;-78
2022/03/27 02:21:43;;;;;;;22.10;17.33;;;10.10;1.00;10.40;101794.00;;;;5014174;28;20469;-78
2022/03/27 02:24:11;;;;;;;23.07;18.53;;;10.10;1.00;10.40;101804.00;;;;5003325;28;20572;-80
2022/03/27 02:26:45;;;;;;;19.83;17.50;;;10.10;1.00;10.40;101782.00;;;;5007304;28;20517;-79
2022/03/27 02:29:16;;;;;;;18.93;15.83;;;10.10;1.00;10.40;101800.00;;;;5012278;28;20454;-78
2022/03/27 02:31:45;;;;;;;25.10;19.50;;;10.10;1.00;10.30;101803.00;;;;5023576;28;20462;-77
2022/03/27 02:34:14;;;;;;;20.70;16.47;;;10.10;1.00;10.30;101804.00;;;;5017832;28;20473;-77
2022/03/27 02:36:43;;;;;;;21.47;17.00;;;10.00;1.00;10.30;101800.00;;;;5022494;28;20489;-80
2022/03/27 02:39:11;;;;;;;20.83;18.03;;;10.20;1.00;10.30;101799.00;;;;5022730;28;20452;-79
2022/03/27 02:41:45;;;;;;;23.83;16.87;;;10.00;1.00;10.30;101798.00;;;;5020579;28;20481;-78
2022/03/27 02:44:16;;;;;;;22.50;16.37;;;10.00;1.00;10.30;101795.00;;;;5006065;28;20520;-79
2022/03/27 02:46:45;;;;;;;20.53;17.53;;;10.00;1.00;10.40;101804.00;;;;5003087;28;20454;-79
2022/03/27 02:49:13;;;;;;;25.93;18.10;;;10.10;1.00;10.50;101786.00;;;;5001872;28;20488;-79
2022/03/27 02:51:44;;;;;;;23.83;17.17;;;10.10;1.00;10.40;101795.00;;;;4996849;28;20481;-79
2022/03/27 02:54:14;;;;;;;21.50;18.37;;;10.10;1.00;10.40;101795.00;;;;4996078;28;20497;-80
2022/03/27 02:56:42;;;;;;;21.43;17.00;;;10.20;1.00;10.40;101791.00;;;;4994892;28;20477;-79
2022/03/27 02:59:11;;;;;;;20.50;17.17;;;10.10;1.00;10.40;101800.00;;;;4996433;28;20459;-80
2022/03/27 03:01:41;;;;;;;23.23;17.50;;;10.10;1.00;10.40;101798.00;;;;4993049;28;20463;-79
2022/03/27 03:04:09;;;;;;;23.53;18.37;;;10.10;1.00;10.40;101801.00;;;;4989496;28;20485;-82
2022/03/27 03:06:38;;;;;;;21.90;17.30;;;10.10;1.00;10.40;101805.00;;;;4991033;28;21280;-79
2022/03/27 03:09:07;;;;;;;23.87;19.80;;;10.10;1.00;10.40;101801.00;;;;4992505;28;20475;-79
2022/03/27 03:11:35;;;;;;;24.83;17.80;;;10.10;1.00;10.30;101807.00;;;;4989926;28;20475;-79
2022/03/27 03:14:04;;;;;;;21.80;17.27;;;10.10;1.00;10.40;101806.00;;;;4990820;28;20536;-79
2022/03/27 03:16:54;;;;;;;24.87;18.20;;;10.10;1.00;10.30;101789.00;;;;4992194;28;20598;-81
2022/03/27 03:19:24;;;;;;;24.53;18.80;;;10.00;1.00;10.30;101797.00;;;;4992601;28;20491;-79
2022/03/27 03:21:52;;;;;;;21.40;17.30;;;10.00;1.00;10.30;101797.00;;;;4988354;28;20470;-78
2022/03/27 03:24:21;;;;;;;22.10;18.13;;;10.00;1.00;10.30;101796.00;;;;4992060;28;21056;-78
2022/03/27 03:26:49;;;;;;;24.80;19.47;;;10.00;1.00;10.30;101783.00;;;;4993236;28;20461;-80
2022/03/27 03:29:18;;;;;;;23.27;18.90;;;10.00;1.00;10.30;101800.00;;;;4992233;28;20461;-77
2022/03/27 03:31:46;;;;;;;26.13;19.10;;;10.00;1.00;10.30;101804.00;;;;4995053;28;20501;-80
2022/03/27 03:34:16;;;;;;;26.13;20.13;;;10.20;1.00;10.30;101799.00;;;;4996465;28;20489;-78
2022/03/27 03:36:45;;;;;;;24.53;18.83;;;10.00;1.00;10.20;101800.00;;;;4996732;28;20453;-79
2022/03/27 03:39:13;;;;;;;24.47;17.70;;;10.00;1.00;10.20;101795.00;;;;5015316;28;20447;-79
2022/03/27 03:41:41;;;;;;;23.67;17.93;;;9.90;1.00;10.20;101784.00;;;;5015571;28;20451;-81
2022/03/27 03:44:24;;;;;;;22.10;17.80;;;9.90;1.00;10.10;101795.00;;;;5012352;28;20473;-81
2022/03/27 03:46:53;;;;;;;26.10;19.97;;;10.10;1.00;10.10;101804.00;;;;4991219;28;20466;-80
2022/03/27 03:49:41;;;;;;;22.40;18.73;;;9.80;1.00;10.10;101777.00;;;;4997919;28;20477;-82
2022/03/27 03:52:09;;;;;;;22.87;19.33;;;9.80;1.00;10.00;101778.00;;;;4990327;28;20489;-79
2022/03/27 03:54:39;;;;;;;25.30;19.23;;;9.70;1.00;10.00;101808.00;;;;4989832;28;20660;-80
2022/03/27 03:57:07;;;;;;;23.93;18.90;;;9.70;1.00;10.10;101807.00;;;;4993537;28;20496;-80
2022/03/27 03:59:38;;;;;;;23.63;18.90;;;9.70;1.00;10.00;101804.00;;;;4991533;28;20534;-79
2022/03/27 04:02:08;;;;;;;27.93;18.53;;;9.70;1.00;9.90;101804.00;;;;4993113;28;20462;-80
2022/03/27 04:04:38;;;;;;;25.33;20.57;;;9.80;1.00;9.90;101811.00;;;;4991928;28;20481;-80
2022/03/27 04:07:07;;;;;;;23.47;18.73;;;9.60;1.00;10.00;101796.00;;;;4991488;28;20838;-79
2022/03/27 04:09:37;;;;;;;27.73;20.47;;;9.70;1.00;9.90;101800.00;;;;4989958;28;20464;-79
2022/03/27 04:12:06;;;;;;;25.50;19.43;;;9.90;1.00;9.90;101791.00;;;;4993248;28;20489;-79
2022/03/27 04:14:36;;;;;;;22.30;18.40;;;9.60;1.00;9.90;101803.00;;;;4994935;28;20582;-79
2022/03/27 04:17:05;;;;;;;22.60;18.03;;;9.80;1.00;10.00;101796.00;;;;4996648;28;20454;-80
2022/03/27 04:19:34;;;;;;;23.67;18.73;;;9.70;1.00;10.00;101806.00;;;;5000737;28;20465;-80
2022/03/27 04:22:02;;;;;;;24.83;20.00;;;9.70;1.00;10.00;101797.00;;;;5000363;28;20489;-80
2022/03/27 04:24:32;;;;;;;25.80;19.43;;;9.70;1.00;10.10;101807.00;;;;5001496;28;20485;-80
2022/03/27 04:27:01;;;;;;;22.93;19.10;;;9.80;1.00;10.00;101801.00;;;;4999435;28;20458;-80
2022/03/27 04:29:29;;;;;;;21.60;18.17;;;9.70;1.00;10.00;101810.00;;;;4999803;28;20450;-79
2022/03/27 04:31:57;;;;;;;25.20;19.43;;;9.70;1.00;9.90;101809.00;;;;4996538;28;20569;-79
2022/03/27 04:34:26;;;;;;;24.30;20.77;;;9.60;1.00;9.80;101811.00;;;;4997647;28;20489;-79
2022/03/27 04:36:54;;;;;;;23.70;20.00;;;9.50;1.00;9.70;101809.00;;;;5015476;28;20460;-79
2022/03/27 04:39:23;;;;;;;23.27;20.47;;;9.40;1.00;9.70;101812.00;;;;5006506;28;20477;-79
2022/03/27 04:41:53;;;;;;;22.60;19.30;;;9.40;1.00;9.60;101817.00;;;;5002805;28;20469;-79
2022/03/27 04:44:21;;;;;;;28.37;21.00;;;9.30;1.00;9.60;101827.00;;;;5002032;28;20470;-79
2022/03/27 04:46:49;;;;;;;24.43;20.33;;;9.40;1.00;9.50;101813.00;;;;5003471;28;20461;-78
2022/03/27 04:49:17;;;;;;;24.60;20.17;;;9.20;1.00;9.40;101815.00;;;;4999773;28;20458;-78
2022/03/27 04:51:46;;;;;;;26.00;19.90;;;9.10;1.00;9.40;101816.00;;;;5003642;28;20469;-77
2022/03/27 04:54:14;;;;;;;23.60;19.30;;;9.10;1.00;9.40;101815.00;;;;4992341;28;20486;-78
2022/03/27 04:56:48;;;;;;;25.77;20.00;;;9.10;1.00;9.30;101812.00;;;;4989121;28;20467;-77
2022/03/27 04:59:18;;;;;;;28.77;21.27;;;9.00;1.00;9.20;101812.00;;;;4988890;28;20462;-77
2022/03/27 05:01:47;;;;;;;26.90;21.10;;;8.90;1.00;9.10;101823.00;;;;4991805;28;20473;-79
2022/03/27 05:04:15;;;;;;;25.90;19.37;;;8.80;1.00;9.10;101821.00;;;;4983494;28;20487;-79
2022/03/27 05:06:43;;;;;;;24.53;19.97;;;8.80;1.00;9.10;101822.00;;;;4990035;28;20824;-78
2022/03/27 05:09:11;;;;;;;23.53;19.47;;;8.80;1.00;9.10;101831.00;;;;4988088;28;20462;-78
2022/03/27 05:11:40;;;;;;;24.73;21.67;;;8.80;1.00;9.10;101823.00;;;;4991606;28;20473;-77
2022/03/27 05:14:09;;;;;;;26.80;21.30;;;8.80;1.00;9.10;101825.00;;;;4992990;28;20499;-79
2022/03/27 05:16:38;;;;;;;28.07;22.13;;;8.70;1.00;9.10;101830.00;;;;4990041;28;20461;-80
2022/03/27 05:19:07;;;;;;;26.47;21.93;;;8.80;1.00;9.10;101828.00;;;;4985740;28;20466;-78
2022/03/27 05:21:36;;;;;;;26.03;21.23;;;8.80;1.00;9.20;101825.00;;;;4989145;28;20451;-78
2022/03/27 05:24:08;;;;;;;25.40;20.60;;;8.80;1.00;9.20;101820.00;;;;4991904;28;20500;-80
2022/03/27 05:26:37;;;;;;;26.50;20.80;;;8.80;1.00;9.20;101824.00;;;;4992884;28;20461;-79
2022/03/27 05:29:08;;;;;;;27.97;21.70;;;8.90;1.00;9.30;101820.00;;;;4990007;28;20455;-79
2022/03/27 05:31:38;;;;;;;28.00;22.37;;;8.90;1.00;9.30;101804.00;;;;4991509;28;20458;-78
2022/03/27 05:34:06;;;;;;;28.93;23.27;;;8.90;1.00;9.40;101815.00;;;;4991842;28;20493;-78
2022/03/27 05:36:34;;;;;;;28.30;21.77;;;9.00;1.00;9.30;101820.00;;;;4993183;28;20485;-81
2022/03/27 05:39:04;;;;;;;30.43;22.23;;;9.00;1.00;9.40;101795.00;;;;4991411;28;20468;-79
2022/03/27 05:41:32;;;;;;;30.70;22.40;;;9.00;1.00;9.50;101826.00;;;;4989646;28;20465;-79
2022/03/27 05:44:00;;;;;;;23.60;20.97;;;9.00;1.00;9.50;101822.00;;;;4990760;28;20482;-79
2022/03/27 05:46:28;;;;;;;28.70;21.47;;;9.10;1.00;9.50;101832.00;;;;4991956;28;20454;-81
2022/03/27 05:48:58;;;;;;;24.47;19.77;;;9.10;1.00;9.60;101830.00;;;;4991894;28;20468;-79
2022/03/27 05:51:26;;;;;;;31.23;20.73;;;9.20;1.00;9.60;101826.00;;;;4993162;28;20654;-79
2022/03/27 05:53:55;;;;;;;23.90;20.13;;;9.20;1.00;9.70;101823.00;;;;4992508;28;20879;-79
2022/03/27 05:56:23;;;;;;;25.03;22.17;;;9.30;1.00;9.80;101836.00;;;;4993596;28;20458;-79
2022/03/27 05:58:51;;;;;;;27.13;21.87;;;9.40;1.00;9.90;101830.00;;;;4988814;28;20457;-80
2022/03/27 06:01:19;;;;;;;25.53;21.17;;;9.50;1.00;9.90;101829.00;;;;4990336;28;20458;-80
2022/03/27 06:03:48;;;;;;;24.77;21.40;;;9.50;1.00;10.00;101828.00;;;;5004483;28;20454;-80
2022/03/27 06:06:18;;;;;;;26.93;21.70;;;9.60;1.00;10.10;101837.00;;;;4996782;28;20476;-79
2022/03/27 06:08:46;;;;;;;25.47;21.40;;;9.70;1.00;10.20;101846.00;;;;5009123;28;20466;-78
2022/03/27 06:11:14;;;;;;;26.20;22.37;;;9.80;1.00;10.30;101849.00;;;;5015871;28;20458;-79
2022/03/27 06:13:42;;;;;;;25.47;20.90;;;9.90;1.00;10.30;101836.00;;;;5008587;28;20485;-78
2022/03/27 06:16:10;;;;;;;27.37;20.90;;;9.90;1.00;10.40;101849.00;;;;4998397;28;20462;-78
2022/03/27 06:18:39;;;;;;;22.10;18.80;;;10.00;1.00;10.50;101850.00;;;;4994837;28;20472;-80
2022/03/27 06:21:08;;;;;;;25.33;19.83;;;10.10;1.00;10.60;101847.00;;;;4995040;28;20963;-79
2022/03/27 06:23:38;;;;;;;25.57;19.77;;;10.20;1.00;10.80;101842.00;;;;4993980;28;20950;-80
2022/03/27 06:26:07;;;;;;;24.30;20.60;;;10.30;1.00;10.80;101857.00;;;;5000670;28;20454;-81
2022/03/27 06:28:36;;;;;;;31.63;20.70;;;10.40;1.00;10.80;101847.00;;;;4995027;28;20466;-80
2022/03/27 06:31:05;;;;;;;25.60;19.80;;;10.50;1.00;10.90;101861.00;;;;5002222;28;20469;-80
2022/03/27 06:33:33;;;;;;;24.53;20.30;;;10.60;1.00;11.10;101859.00;;;;5000403;28;20573;-79
2022/03/27 06:36:01;;;;;;;23.67;20.00;;;10.70;1.00;11.10;101851.00;;;;4996589;28;21026;-80
2022/03/27 06:38:30;;;;;;;22.83;19.10;;;10.80;1.00;11.20;101858.00;;;;5000473;28;20811;-78
2022/03/27 06:41:00;;;;;;;22.63;18.97;;;10.90;1.00;11.30;101850.00;;;;4997694;28;20866;-79
2022/03/27 06:43:28;;;;;;;25.00;19.73;;;11.00;1.00;11.40;101858.00;;;;4994462;28;20467;-80
2022/03/27 06:45:57;;;;;;;25.47;20.30;;;11.10;1.00;11.50;101862.00;;;;5013447;28;20680;-80
2022/03/27 06:48:25;;;;;;;21.57;18.43;;;11.10;1.00;11.60;101849.00;;;;5004315;28;20450;-80
2022/03/27 06:50:53;;;;;;;25.77;20.20;;;11.20;1.00;11.70;101860.00;;;;5016561;28;20574;-79
2022/03/27 06:53:24;;;;;;;25.63;19.50;;;11.30;1.00;11.70;101853.00;;;;5013280;28;20496;-82
2022/03/27 06:55:53;;;;;;;22.97;18.87;;;11.40;1.00;11.70;101864.00;;;;5018450;28;20596;-79
2022/03/27 06:58:22;;;;;;;25.63;20.50;;;11.40;1.00;11.70;101857.00;;;;5005958;28;20465;-80
2022/03/27 07:03:37;;;;;;;31.43;23.73;;;11.50;1.00;11.80;101856.00;;;;4991283;28;20472;-78
2022/03/27 07:06:05;;;;;;;32.37;25.53;;;11.60;1.00;12.00;101853.00;;;;4989126;28;20466;-79
2022/03/27 07:08:34;;;;;;;31.57;24.13;;;11.60;1.00;12.10;101853.00;;;;4987605;28;20488;-78
2022/03/27 07:11:02;;;;;;;35.43;26.10;;;11.80;1.00;12.30;101859.00;;;;4990782;28;20473;-76
2022/03/27 07:13:32;;;;;;;30.43;22.30;;;12.00;1.00;12.30;101861.00;;;;4998907;28;20467;-80
2022/03/27 07:16:01;;;;;;;29.77;23.30;;;12.10;1.00;12.50;101869.00;;;;5006859;28;20485;-82
2022/03/27 07:18:29;;;;;;;33.50;23.97;;;12.20;1.00;12.60;101840.00;;;;5005223;28;20470;-79
2022/03/27 07:20:59;;;;;;;29.77;22.63;;;12.30;1.00;12.50;101870.00;;;;5001251;28;20532;-80
2022/03/27 07:23:28;;;;;;;28.10;21.57;;;12.40;1.00;12.60;101865.00;;;;5003655;28;20454;-81
2022/03/27 07:25:57;;;;;;;24.33;20.17;;;12.40;1.00;12.70;101870.00;;;;5004714;28;20459;-81
2022/03/27 07:28:28;;;;;;;24.30;19.47;;;12.50;1.00;12.80;101861.00;;;;5016777;28;20442;-83
2022/03/27 07:30:59;;;;;;;21.97;17.63;;;12.60;1.00;12.80;101870.00;;;;5010305;28;20508;-80
2022/03/27 07:33:28;;;;;;;21.90;18.27;;;12.60;1.00;12.90;101870.00;;;;4996048;28;20565;-80
2022/03/27 07:35:57;;;;;;;21.90;18.00;;;12.60;1.00;12.90;101870.00;;;;4993862;28;20506;-80
2022/03/27 07:38:25;;;;;;;21.60;17.20;;;12.70;1.00;13.00;101862.00;;;;5001169;28;20498;-80
2022/03/27 07:41:00;;;;;;;22.03;18.43;;;12.80;1.00;13.00;101861.00;;;;4998869;28;20456;-78
2022/03/27 07:43:30;;;;;;;21.47;17.40;;;12.70;1.00;13.10;101840.00;;;;5002647;28;20498;-80
2022/03/27 07:46:00;;;;;;;20.57;17.20;;;12.80;1.00;13.10;101875.00;;;;4997669;28;20550;-79
2022/03/27 07:48:29;;;;;;;21.77;17.63;;;12.90;1.00;13.10;101863.00;;;;5004349;28;20453;-81
2022/03/27 07:50:57;;;;;;;19.90;16.67;;;13.00;1.00;13.30;101876.00;;;;4996371;28;20462;-78
2022/03/27 07:53:27;;;;;;;21.60;16.87;;;13.10;1.00;13.40;101869.00;;;;4992374;28;20454;-80
2022/03/27 07:55:55;;;;;;;21.37;17.30;;;13.20;1.00;13.40;101874.00;;;;4994819;28;20589;-80
2022/03/27 07:58:24;;;;;;;18.20;16.30;;;13.20;1.00;13.50;101865.00;;;;4999206;28;20467;-80
2022/03/27 08:00:52;;;;;;;19.87;17.40;;;13.30;1.00;13.60;101862.00;;;;4998933;28;20463;-76
2022/03/27 08:03:22;;;;;;;20.77;16.87;;;13.40;1.00;13.70;101862.00;;;;4988015;28;20458;-76
2022/03/27 08:05:50;;;;;;;21.47;18.13;;;13.50;1.00;13.80;101858.00;;;;4989421;28;20489;-77
2022/03/27 08:08:18;;;;;;;19.13;16.77;;;13.70;1.00;14.00;101864.00;;;;4993972;28;20501;-78
2022/03/27 08:10:47;;;;;;;20.87;17.50;;;13.80;1.00;14.00;101870.00;;;;4996397;28;20513;-77
2022/03/27 08:13:15;;;;;;;19.90;17.80;;;13.90;1.00;14.10;101860.00;;;;4995832;28;20457;-77
2022/03/27 08:15:43;;;;;;;19.40;16.10;;;14.00;1.00;14.20;101852.00;;;;5002343;28;20493;-77
2022/03/27 08:18:13;;;;;;;20.10;16.30;;;14.10;1.00;14.20;101859.00;;;;5002558;28;20450;-84
2022/03/27 08:20:43;;;;;;;19.47;17.37;;;14.10;1.00;14.30;101869.00;;;;5001407;28;20446;-79
2022/03/27 08:23:12;;;;;;;20.40;17.80;;;14.20;1.00;14.30;101871.00;;;;4996640;28;20447;-80
2022/03/27 08:28:27;;;;;;;18.80;16.10;;;14.30;1.00;14.40;101865.00;;;;4995372;28;20452;-77
2022/03/27 08:30:56;;;;;;;18.00;16.10;;;14.30;1.00;14.50;101876.00;;;;4997303;28;20458;-78
2022/03/27 08:33:24;;;;;;;20.97;16.17;;;14.30;1.00;14.50;101876.00;;;;4995862;28;20458;-79
2022/03/27 08:35:54;;;;;;;20.57;17.87;;;14.40;1.00;14.50;101857.00;;;;4993810;28;20497;-77
2022/03/27 08:38:22;;;;;;;19.33;16.73;;;14.40;1.00;14.70;101870.00;;;;4994667;28;20445;-78
2022/03/27 08:40:55;;;;;;;23.10;16.93;;;14.60;1.00;14.70;101857.00;;;;4997662;28;20461;-78
2022/03/27 08:43:24;;;;;;;18.37;16.50;;;14.70;1.00;14.80;101859.00;;;;4992894;28;20528;-78
2022/03/27 08:45:52;;;;;;;20.60;18.47;;;14.80;1.00;14.80;101877.00;;;;4995018;28;20482;-77
2022/03/27 08:48:23;;;;;;;25.17;20.87;;;14.80;1.00;14.90;101853.00;;;;4993047;28;20466;-79
2022/03/27 08:51:02;;;;;;;24.50;20.53;;;14.90;1.00;15.00;101875.00;;;;4993069;28;20464;-77
2022/03/27 08:53:37;;;;;;;24.23;17.87;;;15.00;1.00;15.10;101872.00;;;;4994199;28;20446;-77
2022/03/27 08:56:07;;;;;;;20.63;17.00;;;15.00;1.00;15.10;101870.00;;;;4999838;28;20505;-76
2022/03/27 08:58:39;;;;;;;18.53;16.60;;;15.10;1.00;15.10;101864.00;;;;5000697;28;20469;-75
2022/03/27 09:01:08;;;;;;;19.67;17.60;;;15.10;1.00;15.10;101872.00;;;;4998043;28;20453;-78
2022/03/27 09:03:37;;;;;;;19.97;17.33;;;15.10;1.00;15.20;101865.00;;;;4992195;28;20459;-79
2022/03/27 09:06:08;;;;;;;21.23;18.93;;;15.20;1.00;15.30;101872.00;;;;4996797;28;20498;-78
2022/03/27 09:08:38;;;;;;;23.83;19.20;;;15.30;1.00;15.30;101862.00;;;;5005446;28;20445;-77
2022/03/27 09:11:08;;;;;;;20.93;18.67;;;15.30;1.00;15.40;101873.00;;;;5000059;28;20463;-77
2022/03/27 09:13:38;;;;;;;19.60;17.57;;;15.40;1.00;15.50;101873.00;;;;5000147;28;20458;-78
2022/03/27 09:16:08;;;;;;;21.03;18.10;;;15.50;1.00;15.50;101872.00;;;;4998720;28;20517;-77
2022/03/27 09:18:48;;;;;;;19.70;17.57;;;15.50;1.00;15.50;101869.00;;;;5002604;28;21098;-77
2022/03/27 09:21:20;;;;;;;20.13;17.93;;;15.30;1.00;15.50;101870.00;;;;5010604;28;20454;-80
2022/03/27 09:23:56;;;;;;;18.83;16.30;;;15.40;1.00;15.50;101861.00;;;;5018308;28;21585;-78
2022/03/27 09:26:25;;;;;;;20.87;18.57;;;15.40;1.00;15.60;101877.00;;;;5001097;28;20459;-76
2022/03/27 09:28:57;;;;;;;20.10;17.80;;;15.50;1.00;15.60;101872.00;;;;4999915;28;20774;-78
2022/03/27 09:31:28;;;;;;;18.97;16.97;;;15.70;1.00;15.80;101877.00;;;;5000026;28;20449;-78
2022/03/27 09:33:59;;;;;;;23.03;17.53;;;15.80;1.00;15.90;101877.00;;;;5012413;28;20529;-77
2022/03/27 09:36:32;;;;;;;19.47;16.30;;;15.90;1.00;16.00;101860.00;;;;5008213;28;20482;-78
2022/03/27 09:39:09;;;;;;;18.53;16.53;;;16.00;1.00;16.10;101852.00;;;;4999186;28;20450;-78
2022/03/27 09:41:45;;;;;;;19.93;17.83;;;16.10;1.00;16.00;101870.00;;;;5000373;28;20564;-77
2022/03/27 09:44:15;;;;;;;20.90;18.53;;;16.10;1.00;16.20;101859.00;;;;4997081;28;20491;-78
2022/03/27 09:46:53;;;;;;;19.57;17.27;;;16.20;1.00;16.30;101846.00;;;;5014744;28;20451;-79
2022/03/27 09:49:26;;;;;;;20.50;18.33;;;16.30;1.00;16.30;101860.00;;;;4999694;28;20531;-79
2022/03/27 09:51:59;;;;;;;19.57;17.67;;;16.50;1.00;16.40;101840.00;;;;5000564;28;20948;-79
2022/03/27 09:54:30;;;;;;;20.30;18.20;;;16.50;1.00;16.50;101838.00;;;;5012496;28;20851;-78
2022/03/27 09:56:58;;;;;;;22.90;19.80;;;16.60;1.00;16.60;101845.00;;;;5004380;28;20445;-77
2022/03/27 09:59:30;;;;;;;20.83;18.63;;;16.70;1.00;16.70;101825.00;;;;5004470;28;20453;-78
2022/03/27 10:02:22;;;;;;;20.90;18.60;;;16.80;1.00;16.80;101832.00;;;;4999798;28;20469;-77
2022/03/27 10:04:57;;;;;;;20.70;18.60;;;17.00;1.00;16.90;101838.00;;;;5002156;28;20530;-78
2022/03/27 10:07:34;;;;;;;19.17;17.27;;;17.10;1.00;16.90;101829.00;;;;5018671;28;20473;-80
2022/03/27 10:10:03;;;;;;;21.47;19.00;;;17.10;1.00;17.00;101825.00;;;;5017850;28;20452;-80
2022/03/27 10:12:34;;;;;;;20.10;18.00;;;17.10;1.00;16.90;101826.00;;;;5008578;28;20959;-77
2022/03/27 10:15:06;;;;;;;23.07;20.10;;;17.10;1.00;17.00;101826.00;;;;5013775;28;20506;-80
2022/03/27 10:17:37;;;;;;;20.30;18.17;;;17.10;1.00;17.10;101815.00;;;;5022085;28;20501;-81
2022/03/27 10:20:10;;;;;;;20.90;18.80;;;17.30;1.00;17.10;101813.00;;;;5019719;28;20465;-81
2022/03/27 10:22:43;;;;;;;20.93;18.73;;;17.20;1.00;17.20;101813.00;;;;5020663;28;20451;-80
2022/03/27 10:25:14;;;;;;;20.93;18.77;;;17.30;1.00;17.30;101819.00;;;;5008466;28;20493;-79
2022/03/27 10:27:44;;;;;;;19.93;17.63;;;17.40;1.00;17.40;101826.00;;;;4992564;28;20549;-78
2022/03/27 10:30:15;;;;;;;20.30;18.30;;;17.50;1.00;17.50;101817.00;;;;4997970;28;20466;-77
2022/03/27 10:32:45;;;;;;;19.30;17.33;;;17.70;1.00;17.60;101810.00;;;;5001485;28;20453;-78
2022/03/27 10:35:29;;;;;;;19.93;17.80;;;17.80;1.00;17.70;101801.00;;;;5000440;28;20494;-78
2022/03/27 10:38:10;;;;;;;21.80;17.97;;;17.90;1.00;17.70;101800.00;;;;4996201;28;20443;-79
2022/03/27 10:40:50;;;;;;;20.10;18.00;;;17.90;1.00;17.70;101795.00;;;;5001260;28;20452;-79
2022/03/27 10:43:27;;;;;;;21.47;18.43;;;17.90;1.00;17.80;101791.00;;;;4996376;28;20451;-78
2022/03/27 10:46:20;;;;;;;20.90;18.00;;;17.90;1.00;17.80;101792.00;;;;4999631;28;20481;-80
2022/03/27 10:48:54;;;;;;;21.97;17.10;;;18.00;1.00;17.80;101791.00;;;;4993311;28;20462;-78
2022/03/27 10:51:40;;;;;;;19.90;15.17;;;17.90;1.00;17.90;101781.00;;;;4996551;28;20473;-77
2022/03/27 10:54:14;;;;;;;19.00;16.30;;;18.10;1.00;17.90;101779.00;;;;4993311;28;20475;-77
2022/03/27 10:56:46;;;;;;;19.60;17.60;;;18.00;1.00;18.10;101779.00;;;;4994530;28;20549;-79
2022/03/27 10:59:17;;;;;;;17.70;15.60;;;18.20;1.00;18.20;101772.00;;;;4996228;28;20492;-77
2022/03/27 11:01:48;;;;;;;17.00;15.20;;;18.40;1.00;18.30;101770.00;;;;4995548;28;20459;-81
2022/03/27 11:04:18;;;;;;;20.30;18.20;;;18.70;1.00;18.40;101765.00;;;;4992260;28;20479;-80